Time;durP1;ratioP1;P1;durP2;ratioP2;P2;SDS_P1;SDS_P2;PMS_P1;PMS_P2;Temp;Humidity;BMP_temperature;BMP_pressure;BME280_temperature;BME280_humidity;BME280_pressure;Samples;Min_cycle;Max_cycle;Signal;HPM_P1;HPM_P2
2024/01/30 00:00:49;;;;;;;19.73;12.43;;;3.20;1.00;;;;;;7380777;19;20014;-70
2024/01/30 00:03:21;;;;;;;21.48;13.18;;;3.20;1.00;;;;;;7381955;19;20014;-70
2024/01/30 00:05:52;;;;;;;20.80;11.95;;;3.20;1.00;;;;;;7380571;19;20102;-70
2024/01/30 00:08:24;;;;;;;17.45;11.18;;;3.20;1.00;;;;;;7381464;19;20007;-70
2024/01/30 00:10:55;;;;;;;17.00;10.80;;;3.20;1.00;;;;;;7380090;19;20003;-70
2024/01/30 00:13:25;;;;;;;20.67;10.57;;;3.20;1.00;;;;;;7380937;19;20018;-70
2024/01/30 00:15:55;;;;;;;23.23;10.85;;;3.40;1.00;;;;;;7380545;19;20381;-71
2024/01/30 00:18:27;;;;;;;18.35;10.52;;;3.40;1.00;;;;;;7380409;19;20006;-70
2024/01/30 00:20:57;;;;;;;19.42;10.52;;;3.40;1.00;;;;;;7381171;19;20006;-71
2024/01/30 00:23:27;;;;;;;15.43;11.00;;;3.50;1.00;;;;;;7380483;19;20010;-71
2024/01/30 00:25:57;;;;;;;17.20;11.68;;;3.40;1.00;;;;;;7380911;19;20545;-71
2024/01/30 00:28:27;;;;;;;17.25;11.07;;;3.50;1.00;;;;;;7380374;19;20118;-72
2024/01/30 00:30:57;;;;;;;19.75;11.20;;;3.50;1.00;;;;;;7377977;19;20097;-71
2024/01/30 00:33:30;;;;;;;19.27;11.32;;;3.50;1.00;;;;;;7377567;19;20013;-70
2024/01/30 00:36:00;;;;;;;19.02;11.75;;;3.50;1.00;;;;;;7380517;19;20038;-71
2024/01/30 00:38:30;;;;;;;18.25;11.35;;;3.50;1.00;;;;;;7377693;19;20030;-72
2024/01/30 00:41:01;;;;;;;18.73;11.48;;;3.70;1.00;;;;;;7378241;19;20026;-71
2024/01/30 00:43:31;;;;;;;18.85;12.32;;;3.60;1.00;;;;;;7380265;19;20016;-71
2024/01/30 00:46:02;;;;;;;22.73;14.05;;;3.60;1.00;;;;;;7379509;19;20028;-71
2024/01/30 00:48:34;;;;;;;20.60;13.18;;;3.60;1.00;;;;;;7378923;19;20014;-72
2024/01/30 00:51:04;;;;;;;22.17;12.85;;;3.50;1.00;;;;;;7377528;19;20017;-71
2024/01/30 00:53:34;;;;;;;22.15;13.70;;;3.50;1.00;;;;;;7379580;19;20035;-70
2024/01/30 00:56:04;;;;;;;24.65;13.88;;;3.40;1.00;;;;;;7379187;19;20359;-70
2024/01/30 00:58:34;;;;;;;21.40;13.35;;;3.40;1.00;;;;;;7379523;19;20021;-70
2024/01/30 01:01:07;;;;;;;22.75;14.00;;;3.40;1.00;;;;;;7378798;19;20010;-70
2024/01/30 01:03:40;;;;;;;24.67;14.68;;;3.40;1.00;;;;;;7381113;19;20011;-70
2024/01/30 01:06:11;;;;;;;22.45;14.10;;;3.40;1.00;;;;;;7377678;19;20430;-70
2024/01/30 01:08:41;;;;;;;21.83;13.43;;;3.40;1.00;;;;;;7379395;19;20011;-71
2024/01/30 01:11:11;;;;;;;23.15;13.70;;;3.40;1.00;;;;;;7377227;19;20136;-71
2024/01/30 01:13:41;;;;;;;22.20;14.25;;;3.40;1.00;;;;;;7379449;19;20014;-70
2024/01/30 01:16:11;;;;;;;22.38;13.50;;;3.40;1.00;;;;;;7378925;19;20007;-72
2024/01/30 01:18:44;;;;;;;22.13;14.15;;;3.40;1.00;;;;;;7375753;19;20014;-70
2024/01/30 01:21:14;;;;;;;21.38;13.98;;;3.50;1.00;;;;;;7378361;19;20022;-71
2024/01/30 01:23:44;;;;;;;20.48;13.35;;;3.50;1.00;;;;;;7377761;19;20010;-70
2024/01/30 01:26:14;;;;;;;25.48;13.98;;;3.50;1.00;;;;;;7377873;19;20028;-70
2024/01/30 01:28:45;;;;;;;21.55;12.80;;;3.60;1.00;;;;;;7377747;19;20014;-70
2024/01/30 01:31:15;;;;;;;20.08;13.40;;;3.60;1.00;;;;;;7378028;19;20788;-70
2024/01/30 01:33:47;;;;;;;21.50;13.52;;;3.50;1.00;;;;;;7379076;19;20022;-69
2024/01/30 01:36:17;;;;;;;17.20;12.82;;;3.50;1.00;;;;;;7376086;19;20014;-70
2024/01/30 01:38:47;;;;;;;19.30;13.10;;;3.60;1.00;;;;;;7378597;19;20021;-71
2024/01/30 01:41:17;;;;;;;20.02;13.40;;;3.70;1.00;;;;;;7376654;19;20609;-71
2024/01/30 01:43:47;;;;;;;23.88;13.75;;;3.60;1.00;;;;;;7378366;19;20021;-71
2024/01/30 01:46:18;;;;;;;18.63;12.77;;;3.50;1.00;;;;;;7375622;19;20007;-69
2024/01/30 01:48:51;;;;;;;18.80;12.73;;;3.50;1.00;;;;;;7377454;19;20657;-69
2024/01/30 01:51:21;;;;;;;18.13;12.88;;;3.50;1.00;;;;;;7375773;19;20097;-70
2024/01/30 01:53:52;;;;;;;22.23;13.23;;;3.40;1.00;;;;;;7376959;19;20387;-70
2024/01/30 01:56:22;;;;;;;19.88;13.20;;;3.40;1.00;;;;;;7377031;19;20014;-70
2024/01/30 01:58:53;;;;;;;23.58;14.00;;;3.40;1.00;;;;;;7377625;19;20011;-69
2024/01/30 02:01:25;;;;;;;20.85;13.35;;;3.50;1.00;;;;;;7377464;19;20010;-70
2024/01/30 02:03:58;;;;;;;20.85;13.65;;;3.50;1.00;;;;;;7377669;19;20043;-69
2024/01/30 02:06:29;;;;;;;21.73;13.20;;;3.50;1.00;;;;;;7377056;19;20013;-70
2024/01/30 02:08:59;;;;;;;25.02;13.65;;;3.40;1.00;;;;;;7377952;19;20015;-70
2024/01/30 02:11:30;;;;;;;21.65;13.52;;;3.40;1.00;;;;;;7376687;19;20013;-70
2024/01/30 02:14:00;;;;;;;23.83;15.10;;;3.40;1.00;;;;;;7377708;19;20013;-69
2024/01/30 02:16:30;;;;;;;19.73;13.77;;;3.40;1.00;;;;;;7376129;19;20017;-69
2024/01/30 02:19:03;;;;;;;18.30;12.95;;;3.40;1.00;;;;;;7377507;19;20010;-70
2024/01/30 02:21:38;;;;;;;22.83;14.30;;;3.20;1.00;;;;;;7376646;19;20014;-70
2024/01/30 02:24:08;;;;;;;25.70;14.02;;;3.30;1.00;;;;;;7378277;19;20007;-69
2024/01/30 02:26:38;;;;;;;18.73;13.65;;;3.20;1.00;;;;;;7376443;19;20024;-69
2024/01/30 02:29:08;;;;;;;23.85;15.30;;;3.20;1.00;;;;;;7377354;19;20447;-69
2024/01/30 02:31:38;;;;;;;22.25;14.75;;;3.20;1.00;;;;;;7375832;19;20015;-69
2024/01/30 02:34:08;;;;;;;20.02;14.27;;;3.10;1.00;;;;;;7377434;19;20018;-70
2024/01/30 02:36:41;;;;;;;18.45;13.85;;;3.10;1.00;;;;;;7375768;19;20014;-70
2024/01/30 02:39:11;;;;;;;21.35;14.10;;;3.10;1.00;;;;;;7377950;19;20018;-70
2024/01/30 02:41:41;;;;;;;21.55;14.38;;;3.10;1.00;;;;;;7375845;19;20842;-70
2024/01/30 02:44:11;;;;;;;22.60;13.48;;;3.10;1.00;;;;;;7373598;19;20102;-71
2024/01/30 02:46:41;;;;;;;19.20;13.88;;;3.20;1.00;;;;;;7373983;19;20078;-70
2024/01/30 02:49:11;;;;;;;19.52;13.10;;;3.20;1.00;;;;;;7377188;19;20014;-70
2024/01/30 02:51:44;;;;;;;21.38;13.77;;;3.20;1.00;;;;;;7373771;19;20025;-70
2024/01/30 02:54:14;;;;;;;20.85;14.18;;;3.20;1.00;;;;;;7371767;19;20097;-70
2024/01/30 02:56:44;;;;;;;21.02;14.13;;;3.30;1.00;;;;;;7373376;19;20014;-70
2024/01/30 02:59:14;;;;;;;19.65;13.63;;;3.30;1.00;;;;;;7376118;19;20011;-70
2024/01/30 03:01:47;;;;;;;22.35;13.80;;;3.30;1.00;;;;;;7375464;19;20055;-71
2024/01/30 03:04:18;;;;;;;20.17;13.55;;;3.20;1.00;;;;;;7375388;19;20030;-71
2024/01/30 03:06:51;;;;;;;20.05;14.48;;;3.30;1.00;;;;;;7371292;19;21664;-70
2024/01/30 03:09:21;;;;;;;22.10;13.63;;;3.20;1.00;;;;;;7376342;19;20025;-71
2024/01/30 03:11:51;;;;;;;21.75;13.95;;;3.30;1.00;;;;;;7375227;19;20011;-70
2024/01/30 03:14:21;;;;;;;21.23;13.07;;;3.20;1.00;;;;;;7375524;19;20014;-70
2024/01/30 03:16:51;;;;;;;20.73;13.68;;;3.00;1.00;;;;;;7375787;19;20078;-70
2024/01/30 03:19:21;;;;;;;20.33;13.40;;;3.10;1.00;;;;;;7376756;19;20047;-70
2024/01/30 03:21:55;;;;;;;20.00;13.48;;;3.00;1.00;;;;;;7376465;19;20014;-71
2024/01/30 03:24:25;;;;;;;19.48;13.65;;;3.00;1.00;;;;;;7376147;19;20019;-70
2024/01/30 03:26:55;;;;;;;21.17;14.05;;;2.90;1.00;;;;;;7375581;19;20010;-70
2024/01/30 03:29:25;;;;;;;19.65;13.35;;;2.80;1.00;;;;;;7376386;19;20019;-70
2024/01/30 03:31:55;;;;;;;19.85;12.88;;;2.80;1.00;;;;;;7377324;19;20011;-70
2024/01/30 03:34:25;;;;;;;20.00;13.50;;;2.80;1.00;;;;;;7377400;19;20040;-70
2024/01/30 03:36:58;;;;;;;18.17;13.07;;;2.70;1.00;;;;;;7375452;19;20013;-70
2024/01/30 03:39:28;;;;;;;22.88;13.75;;;2.70;1.00;;;;;;7375749;19;20025;-71
2024/01/30 03:41:58;;;;;;;19.40;13.52;;;2.70;1.00;;;;;;7374158;19;20011;-70
2024/01/30 03:44:28;;;;;;;22.05;13.57;;;2.60;1.00;;;;;;7374965;19;20926;-71
2024/01/30 03:47:01;;;;;;;19.85;13.15;;;2.60;1.00;;;;;;7373663;19;20014;-70
2024/01/30 03:49:31;;;;;;;22.60;13.18;;;2.60;1.00;;;;;;7374750;19;20021;-69
2024/01/30 03:52:04;;;;;;;19.75;12.88;;;2.70;1.00;;;;;;7374331;19;20006;-69
2024/01/30 03:54:34;;;;;;;18.65;13.02;;;2.70;1.00;;;;;;7374885;19;20352;-70
2024/01/30 03:57:04;;;;;;;22.48;12.65;;;2.70;1.00;;;;;;7373991;19;20029;-70
2024/01/30 03:59:35;;;;;;;20.02;13.02;;;2.70;1.00;;;;;;7374201;19;20011;-71
2024/01/30 04:02:05;;;;;;;19.95;12.57;;;2.70;1.00;;;;;;7371920;19;20016;-71
2024/01/30 04:04:35;;;;;;;19.80;13.30;;;2.70;1.00;;;;;;7374553;19;20543;-71
2024/01/30 04:07:08;;;;;;;20.85;13.30;;;2.70;1.00;;;;;;7374763;19;20031;-70
2024/01/30 04:09:38;;;;;;;19.23;12.32;;;2.70;1.00;;;;;;7379499;19;20035;-70
2024/01/30 04:12:09;;;;;;;22.15;13.23;;;2.70;1.00;;;;;;7380867;19;20077;-70
2024/01/30 04:14:41;;;;;;;21.77;13.60;;;2.70;1.00;;;;;;7380807;19;20014;-69
2024/01/30 04:17:12;;;;;;;21.52;14.25;;;2.70;1.00;;;;;;7380949;19;20031;-70
2024/01/30 04:19:43;;;;;;;19.38;13.50;;;2.70;1.00;;;;;;7380368;19;20014;-71
2024/01/30 04:22:16;;;;;;;19.50;12.52;;;2.70;1.00;;;;;;7381222;19;20033;-70
2024/01/30 04:24:46;;;;;;;22.17;13.38;;;2.80;1.00;;;;;;7381442;19;20026;-70
2024/01/30 04:27:16;;;;;;;25.98;13.40;;;2.70;1.00;;;;;;7381428;19;20052;-70
2024/01/30 04:29:46;;;;;;;20.02;13.50;;;2.70;1.00;;;;;;7380426;19;20026;-71
2024/01/30 04:32:16;;;;;;;18.98;12.80;;;2.70;1.00;;;;;;7376673;19;20027;-71
2024/01/30 04:34:46;;;;;;;18.52;13.10;;;2.70;1.00;;;;;;7379956;19;20368;-71
2024/01/30 04:37:19;;;;;;;19.15;12.93;;;2.60;1.00;;;;;;7381815;19;20046;-70
2024/01/30 04:39:49;;;;;;;19.23;13.40;;;2.60;1.00;;;;;;7381194;19;20018;-70
2024/01/30 04:42:19;;;;;;;17.15;12.05;;;2.60;1.00;;;;;;7379948;19;20033;-71
2024/01/30 04:44:49;;;;;;;20.70;12.23;;;2.60;1.00;;;;;;7381749;19;20390;-69
2024/01/30 04:47:19;;;;;;;16.63;11.30;;;2.80;1.00;;;;;;7379097;19;20030;-70
2024/01/30 04:49:50;;;;;;;17.38;11.40;;;2.90;1.00;;;;;;7381235;19;20018;-70
2024/01/30 04:52:23;;;;;;;16.52;11.70;;;2.90;1.00;;;;;;7380961;19;20017;-70
2024/01/30 04:54:53;;;;;;;15.75;11.20;;;2.90;1.00;;;;;;7380902;19;20022;-71
2024/01/30 04:57:23;;;;;;;21.52;11.35;;;3.00;1.00;;;;;;7382418;19;20045;-70
2024/01/30 04:59:53;;;;;;;17.77;12.00;;;3.00;1.00;;;;;;7381707;19;20022;-70
2024/01/30 05:02:23;;;;;;;16.30;11.32;;;3.00;1.00;;;;;;7381998;19;20015;-70
2024/01/30 05:04:53;;;;;;;18.15;11.45;;;2.90;1.00;;;;;;7380610;19;20010;-70
2024/01/30 05:07:27;;;;;;;17.05;11.82;;;2.90;1.00;;;;;;7381340;19;20014;-70
2024/01/30 05:09:57;;;;;;;15.80;11.98;;;2.90;1.00;;;;;;7376730;19;20011;-70
2024/01/30 05:12:29;;;;;;;17.75;12.30;;;2.80;1.00;;;;;;7379830;19;20011;-70
2024/01/30 05:14:59;;;;;;;18.67;12.75;;;2.80;1.00;;;;;;7380949;19;20013;-71
2024/01/30 05:17:29;;;;;;;17.45;12.85;;;2.80;1.00;;;;;;7380228;19;20439;-70
2024/01/30 05:19:59;;;;;;;21.95;12.95;;;2.70;1.00;;;;;;7377978;19;20022;-71
2024/01/30 05:22:32;;;;;;;19.98;12.48;;;2.70;1.00;;;;;;7379940;19;20043;-71
2024/01/30 05:25:02;;;;;;;14.75;11.68;;;2.60;1.00;;;;;;7379474;19;20392;-70
2024/01/30 05:27:32;;;;;;;20.55;12.23;;;2.70;1.00;;;;;;7378573;19;20474;-71
2024/01/30 05:30:02;;;;;;;15.95;11.20;;;2.80;1.00;;;;;;7380835;19;20034;-73
2024/01/30 05:32:32;;;;;;;19.70;11.93;;;2.80;1.00;;;;;;7380222;19;20633;-69
2024/01/30 05:35:02;;;;;;;17.08;12.30;;;2.90;1.00;;;;;;7379310;19;20089;-70
2024/01/30 05:37:35;;;;;;;16.52;11.38;;;2.90;1.00;;;;;;7378385;19;20043;-70
2024/01/30 05:40:06;;;;;;;19.52;12.25;;;2.80;1.00;;;;;;7377563;19;20018;-71
2024/01/30 05:42:38;;;;;;;15.95;11.07;;;2.80;1.00;;;;;;7377694;19;20019;-70
2024/01/30 05:45:09;;;;;;;17.13;11.93;;;2.80;1.00;;;;;;7377980;19;20591;-69
2024/01/30 05:47:39;;;;;;;16.70;11.77;;;2.80;1.00;;;;;;7378477;19;20015;-70
2024/01/30 05:50:10;;;;;;;17.38;11.05;;;2.70;1.00;;;;;;7379396;19;20040;-70
2024/01/30 05:52:44;;;;;;;19.15;12.55;;;2.70;1.00;;;;;;7377440;19;20516;-70
2024/01/30 05:55:15;;;;;;;17.45;11.77;;;2.70;1.00;;;;;;7376398;19;20027;-70
2024/01/30 05:57:45;;;;;;;16.95;11.82;;;2.70;1.00;;;;;;7378184;19;20039;-69
2024/01/30 06:00:16;;;;;;;17.92;12.32;;;2.70;1.00;;;;;;7379370;19;20132;-71
2024/01/30 06:02:46;;;;;;;18.05;11.75;;;2.70;1.00;;;;;;7379883;19;20517;-69
2024/01/30 06:05:16;;;;;;;20.13;12.02;;;2.70;1.00;;;;;;7378243;19;20353;-70
2024/01/30 06:07:49;;;;;;;21.90;12.88;;;2.80;1.00;;;;;;7378691;19;20391;-70
2024/01/30 06:10:19;;;;;;;18.38;12.73;;;2.70;1.00;;;;;;7376972;19;20006;-71
2024/01/30 06:12:51;;;;;;;21.27;12.70;;;2.70;1.00;;;;;;7376811;19;20018;-69
2024/01/30 06:15:21;;;;;;;17.98;11.68;;;2.70;1.00;;;;;;7377146;19;20594;-69
2024/01/30 06:17:51;;;;;;;17.48;12.35;;;2.70;1.00;;;;;;7376586;19;20391;-70
2024/01/30 06:20:21;;;;;;;16.98;11.93;;;2.60;1.00;;;;;;7376846;19;20109;-70
2024/01/30 06:22:54;;;;;;;21.23;12.13;;;2.60;1.00;;;;;;7376375;19;20696;-69
2024/01/30 06:25:24;;;;;;;18.42;12.18;;;2.60;1.00;;;;;;7378644;19;20007;-70
2024/01/30 06:27:55;;;;;;;19.80;12.75;;;2.70;1.00;;;;;;7376567;19;20014;-70
2024/01/30 06:30:25;;;;;;;21.35;12.02;;;2.70;1.00;;;;;;7376745;19;20002;-70
2024/01/30 06:32:55;;;;;;;18.17;12.30;;;2.70;1.00;;;;;;7374898;19;20055;-69
2024/01/30 06:35:25;;;;;;;16.05;10.90;;;2.80;1.00;;;;;;7374374;19;20411;-70
2024/01/30 06:37:58;;;;;;;16.40;12.13;;;2.80;1.00;;;;;;7376461;19;20030;-70
2024/01/30 06:40:28;;;;;;;18.73;12.52;;;2.80;1.00;;;;;;7375061;19;20739;-71
2024/01/30 06:42:58;;;;;;;18.50;11.98;;;2.70;1.00;;;;;;7374954;19;20035;-70
2024/01/30 06:45:28;;;;;;;21.88;11.93;;;2.70;1.00;;;;;;7375013;19;20022;-70
2024/01/30 06:47:58;;;;;;;18.15;12.45;;;2.70;1.00;;;;;;7376753;19;20367;-70
2024/01/30 06:50:28;;;;;;;19.15;12.32;;;2.60;1.00;;;;;;7376273;19;20105;-70
2024/01/30 06:53:01;;;;;;;19.95;12.57;;;2.60;1.00;;;;;;7375813;19;20664;-69
2024/01/30 06:55:31;;;;;;;20.30;13.27;;;2.50;1.00;;;;;;7377700;19;20039;-70
2024/01/30 06:58:01;;;;;;;19.63;12.32;;;2.50;1.00;;;;;;7378107;19;20518;-71
2024/01/30 07:00:31;;;;;;;20.30;13.30;;;2.50;1.00;;;;;;7376172;19;20014;-70
2024/01/30 07:03:01;;;;;;;20.70;13.68;;;2.50;1.00;;;;;;7377480;19;20050;-70
2024/01/30 07:05:31;;;;;;;19.88;13.00;;;2.50;1.00;;;;;;7377028;19;20091;-70
2024/01/30 07:08:04;;;;;;;19.50;13.80;;;2.50;1.00;;;;;;7378294;19;20006;-70
2024/01/30 07:10:34;;;;;;;18.00;13.48;;;2.60;1.00;;;;;;7376106;19;20036;-70
2024/01/30 07:13:05;;;;;;;21.83;13.57;;;2.70;1.00;;;;;;7376992;19;20011;-70
2024/01/30 07:15:36;;;;;;;20.00;12.52;;;2.70;1.00;;;;;;7376111;19;20081;-70
2024/01/30 07:18:07;;;;;;;19.48;13.07;;;2.70;1.00;;;;;;7374801;19;20094;-70
2024/01/30 07:20:41;;;;;;;20.42;14.50;;;2.80;1.00;;;;;;7373694;19;20083;-70
2024/01/30 07:23:16;;;;;;;21.50;13.57;;;2.80;1.00;;;;;;7376094;19;20362;-70
2024/01/30 07:25:48;;;;;;;21.60;13.52;;;2.90;1.00;;;;;;7375632;19;20006;-70
2024/01/30 07:28:20;;;;;;;21.75;12.40;;;2.90;1.00;;;;;;7376260;19;20074;-69
2024/01/30 07:30:50;;;;;;;23.02;13.43;;;3.00;1.00;;;;;;7374018;19;20013;-68
2024/01/30 07:33:21;;;;;;;19.95;12.98;;;3.00;1.00;;;;;;7375303;19;20046;-69
2024/01/30 07:35:51;;;;;;;18.92;13.25;;;3.10;1.00;;;;;;7373760;19;20086;-70
2024/01/30 07:38:24;;;;;;;18.30;11.90;;;3.10;1.00;;;;;;7375888;19;20035;-68
2024/01/30 07:40:57;;;;;;;19.52;12.25;;;3.20;1.00;;;;;;7372865;19;20040;-70
2024/01/30 07:43:29;;;;;;;18.30;11.52;;;3.30;1.00;;;;;;7377081;19;20395;-70
2024/01/30 07:46:00;;;;;;;20.45;11.35;;;3.30;1.00;;;;;;7381672;19;20010;-69
2024/01/30 07:48:31;;;;;;;15.05;11.05;;;3.40;1.00;;;;;;7381233;19;20026;-70
2024/01/30 07:51:02;;;;;;;17.17;10.77;;;3.50;1.00;;;;;;7379977;19;20090;-71
2024/01/30 07:53:35;;;;;;;16.40;11.85;;;3.50;1.00;;;;;;7382136;19;20488;-71
2024/01/30 07:56:05;;;;;;;22.40;11.52;;;3.50;1.00;;;;;;7380977;19;20003;-72
2024/01/30 07:58:35;;;;;;;17.63;11.93;;;3.50;1.00;;;;;;7380703;19;20023;-69
2024/01/30 08:01:06;;;;;;;18.35;11.52;;;3.50;1.00;;;;;;7381033;19;20013;-70
2024/01/30 08:03:36;;;;;;;17.38;10.90;;;3.60;1.00;;;;;;7380888;19;20007;-70
2024/01/30 08:06:07;;;;;;;23.45;13.20;;;3.70;1.00;;;;;;7381596;19;20027;-71
2024/01/30 08:08:40;;;;;;;18.10;12.35;;;3.70;1.00;;;;;;7380277;19;20010;-69
2024/01/30 08:11:10;;;;;;;17.73;13.02;;;3.70;1.00;;;;;;7380493;19;20002;-70
2024/01/30 08:13:40;;;;;;;46.80;27.25;;;3.80;1.00;;;;;;7380897;19;20412;-70
2024/01/30 08:16:10;;;;;;;17.50;12.02;;;3.80;1.00;;;;;;7381078;19;20017;-69
2024/01/30 08:18:44;;;;;;;16.33;11.70;;;3.90;1.00;;;;;;7382165;19;20010;-70
2024/01/30 08:21:14;;;;;;;20.83;12.65;;;3.90;1.00;;;;;;7380518;19;20365;-70
2024/01/30 08:23:46;;;;;;;18.48;12.57;;;4.10;1.00;;;;;;7382425;19;20017;-70
2024/01/30 08:26:16;;;;;;;25.92;13.32;;;4.10;1.00;;;;;;7380812;19;20018;-70
2024/01/30 08:28:46;;;;;;;19.08;13.07;;;4.20;1.00;;;;;;7381099;19;20471;-70
2024/01/30 08:31:17;;;;;;;17.55;11.60;;;4.40;1.00;;;;;;7382065;19;20383;-69
2024/01/30 08:33:47;;;;;;;17.98;12.30;;;4.50;1.00;;;;;;7380778;19;20022;-70
2024/01/30 08:36:19;;;;;;;18.75;12.45;;;4.60;1.00;;;;;;7379757;19;20006;-69
2024/01/30 08:38:52;;;;;;;19.13;11.88;;;4.70;1.00;;;;;;7380883;19;20014;-70
2024/01/30 08:41:28;;;;;;;16.60;11.25;;;4.80;1.00;;;;;;7377423;19;20018;-71
2024/01/30 08:43:58;;;;;;;18.67;11.30;;;4.90;1.00;;;;;;7381441;19;20010;-70
2024/01/30 08:46:30;;;;;;;19.67;11.52;;;5.00;1.00;;;;;;7377692;19;20010;-70
2024/01/30 08:49:00;;;;;;;18.55;11.57;;;5.10;1.00;;;;;;7379333;19;20083;-70
2024/01/30 08:51:31;;;;;;;16.73;10.82;;;5.10;1.00;;;;;;7379079;19;20386;-69
2024/01/30 08:54:03;;;;;;;17.42;10.30;;;5.20;1.00;;;;;;7378940;19;20077;-69
2024/01/30 08:56:33;;;;;;;14.80;10.40;;;5.20;1.00;;;;;;7378218;19;20016;-69
2024/01/30 08:59:03;;;;;;;15.18;10.52;;;5.30;1.00;;;;;;7379468;19;20010;-70
2024/01/30 09:01:34;;;;;;;13.90;10.50;;;5.40;1.00;;;;;;7378076;19;20737;-70
2024/01/30 09:04:04;;;;;;;15.00;11.32;;;5.40;1.00;;;;;;7379270;19;20011;-69
2024/01/30 09:06:34;;;;;;;14.80;10.63;;;5.40;1.00;;;;;;7378756;19;20383;-72
2024/01/30 09:09:07;;;;;;;14.48;10.85;;;5.30;1.00;;;;;;7379623;19;20006;-70
2024/01/30 09:11:38;;;;;;;17.23;11.15;;;5.30;1.00;;;;;;7379224;19;20014;-69
2024/01/30 09:14:08;;;;;;;13.40;10.55;;;5.40;1.00;;;;;;7378866;19;20331;-70
2024/01/30 09:16:38;;;;;;;17.17;11.13;;;5.60;1.00;;;;;;7379417;19;20011;-70
2024/01/30 09:19:08;;;;;;;20.10;11.63;;;5.70;1.00;;;;;;7378996;19;20342;-70
2024/01/30 09:21:39;;;;;;;14.90;10.63;;;5.90;1.00;;;;;;7378195;19;20011;-69
2024/01/30 09:24:11;;;;;;;16.85;11.07;;;6.00;1.00;;;;;;7379608;19;20014;-69
2024/01/30 09:26:41;;;;;;;15.70;11.50;;;6.10;1.00;;;;;;7376611;19;20792;-70
2024/01/30 09:29:12;;;;;;;19.45;12.25;;;6.10;1.00;;;;;;7378235;19;20078;-70
2024/01/30 09:31:42;;;;;;;15.55;11.18;;;6.30;1.00;;;;;;7376204;19;20011;-70
2024/01/30 09:34:12;;;;;;;20.80;12.02;;;6.50;1.00;;;;;;7378041;19;20352;-70
2024/01/30 09:36:42;;;;;;;23.05;12.10;;;6.50;1.00;;;;;;7376884;19;20019;-70
2024/01/30 09:39:16;;;;;;;16.38;10.90;;;6.60;1.00;;;;;;7377210;19;20006;-71
2024/01/30 09:42:03;;;;;;;21.73;10.60;;;6.60;1.00;;;;;;7376816;19;20014;-69
2024/01/30 09:44:38;;;;;;;19.48;10.15;;;6.80;1.00;;;;;;7377650;19;20026;-69
2024/01/30 09:47:08;;;;;;;14.15;10.45;;;6.90;1.00;;;;;;7376391;19;20502;-70
2024/01/30 09:49:40;;;;;;;14.05;10.25;;;6.90;1.00;;;;;;7376840;19;20018;-70
2024/01/30 09:52:11;;;;;;;14.88;10.48;;;6.80;1.00;;;;;;7379450;19;20360;-69
2024/01/30 09:54:44;;;;;;;16.98;9.63;;;6.90;1.00;;;;;;7378406;19;20085;-70
2024/01/30 09:57:14;;;;;;;23.52;15.77;;;7.00;1.00;;;;;;7376309;19;20495;-69
2024/01/30 09:59:45;;;;;;;17.83;10.43;;;7.30;1.00;;;;;;7376621;19;20436;-70
2024/01/30 10:02:13;;;;;;;18.17;10.75;;;7.30;1.00;;;;;;7376650;19;20007;-70
2024/01/30 10:04:43;;;;;;;16.35;9.75;;;7.40;1.00;;;;;;7377720;19;20014;-70
2024/01/30 10:07:14;;;;;;;13.55;9.98;;;7.50;1.00;;;;;;7373956;19;20007;-69
2024/01/30 10:09:47;;;;;;;12.57;9.60;;;7.60;1.00;;;;;;7378089;19;20498;-70
2024/01/30 10:12:17;;;;;;;28.08;10.93;;;7.60;1.00;;;;;;7375100;19;20018;-71
2024/01/30 10:14:48;;;;;;;16.83;9.60;;;7.60;1.00;;;;;;7375403;19;20014;-70
2024/01/30 10:17:18;;;;;;;15.45;9.60;;;7.70;1.00;;;;;;7374555;19;20019;-70
2024/01/30 10:20:01;;;;;;;14.63;9.60;;;7.80;1.00;;;;;;7375800;19;20014;-69
2024/01/30 10:22:31;;;;;;;14.85;9.93;;;7.80;1.00;;;;;;7375411;19;20504;-70
2024/01/30 10:25:05;;;;;;;14.93;10.10;;;8.00;1.00;;;;;;7376159;19;20502;-71
2024/01/30 10:27:35;;;;;;;19.60;11.10;;;8.10;1.00;;;;;;7377239;19;20010;-70
2024/01/30 10:30:06;;;;;;;17.05;10.68;;;8.20;1.00;;;;;;7376329;19;20015;-70
2024/01/30 10:32:36;;;;;;;15.45;10.77;;;8.10;1.00;;;;;;7375618;19;20021;-69
2024/01/30 10:35:07;;;;;;;22.30;11.73;;;8.20;1.00;;;;;;7375151;19;20054;-69
2024/01/30 10:37:37;;;;;;;18.73;10.57;;;8.20;1.00;;;;;;7376276;19;20014;-70
2024/01/30 10:40:11;;;;;;;16.88;10.70;;;8.30;1.00;;;;;;7376249;19;20036;-70
2024/01/30 10:42:45;;;;;;;17.35;10.55;;;8.30;1.00;;;;;;7375643;19;20027;-69
2024/01/30 10:45:16;;;;;;;18.35;10.75;;;8.40;1.00;;;;;;7377144;19;20360;-72
2024/01/30 10:47:51;;;;;;;17.63;10.55;;;8.30;1.00;;;;;;7377153;19;20114;-70
2024/01/30 10:50:22;;;;;;;14.63;10.93;;;8.40;1.00;;;;;;7375874;19;20032;-70
2024/01/30 10:52:52;;;;;;;28.30;11.00;;;8.60;1.00;;;;;;7375749;19;20015;-70
2024/01/30 10:55:28;;;;;;;20.88;10.52;;;8.70;1.00;;;;;;7375533;19;20049;-71
2024/01/30 10:57:58;;;;;;;15.15;10.98;;;8.70;1.00;;;;;;7379713;19;20031;-69
2024/01/30 11:00:29;;;;;;;15.65;11.32;;;8.60;1.00;;;;;;7380126;19;20002;-70
2024/01/30 11:02:59;;;;;;;15.10;10.05;;;8.60;1.00;;;;;;7375574;19;20102;-69
2024/01/30 11:05:30;;;;;;;17.92;11.27;;;8.80;1.00;;;;;;7376558;19;20025;-70
2024/01/30 11:08:13;;;;;;;19.70;12.32;;;9.00;1.00;;;;;;7376547;19;20013;-69
2024/01/30 11:10:52;;;;;;;20.17;12.60;;;9.10;1.00;;;;;;7374957;19;20118;-70
2024/01/30 11:13:22;;;;;;;26.10;13.70;;;9.10;1.00;;;;;;7373911;19;20435;-69
2024/01/30 11:15:52;;;;;;;25.38;13.85;;;9.10;1.00;;;;;;7375983;19;20044;-71
2024/01/30 11:18:26;;;;;;;28.08;14.98;;;9.20;1.00;;;;;;7376674;19;20014;-70
2024/01/30 11:21:00;;;;;;;35.17;16.23;;;9.40;1.00;;;;;;7372570;19;20015;-70
2024/01/30 11:23:31;;;;;;;24.35;13.65;;;9.20;1.00;;;;;;7375483;19;20440;-70
2024/01/30 11:26:03;;;;;;;20.75;12.95;;;9.30;1.00;;;;;;7375648;19;20019;-70
2024/01/30 11:28:37;;;;;;;25.50;13.70;;;9.40;1.00;;;;;;7374041;19;20043;-70
2024/01/30 11:31:08;;;;;;;22.70;12.85;;;9.30;1.00;;;;;;7373981;19;20467;-70
2024/01/30 11:33:38;;;;;;;15.98;11.20;;;9.60;1.00;;;;;;7374902;19;20649;-70
2024/01/30 11:36:09;;;;;;;20.20;11.52;;;9.70;1.00;;;;;;7374799;19;20060;-70
2024/01/30 11:38:39;;;;;;;17.33;11.43;;;9.70;1.00;;;;;;7374117;19;20007;-70
2024/01/30 11:41:17;;;;;;;15.38;11.70;;;9.50;1.00;;;;;;7373550;19;20031;-70
2024/01/30 11:43:56;;;;;;;16.08;11.15;;;9.60;1.00;;;;;;7375540;19;20044;-70
2024/01/30 11:46:28;;;;;;;28.40;12.55;;;9.70;1.00;;;;;;7373541;19;20014;-70
2024/01/30 11:48:58;;;;;;;21.40;12.73;;;9.80;1.00;;;;;;7375650;19;20471;-70
2024/01/30 11:51:29;;;;;;;22.30;11.73;;;9.80;1.00;;;;;;7374931;19;20114;-69
2024/01/30 11:54:00;;;;;;;17.50;10.80;;;9.80;1.00;;;;;;7374716;19;20359;-71
2024/01/30 11:56:32;;;;;;;16.52;9.98;;;9.80;1.00;;;;;;7375055;19;20116;-72
2024/01/30 11:59:03;;;;;;;18.55;10.20;;;9.80;1.00;;;;;;7376351;19;20015;-72
2024/01/30 12:01:34;;;;;;;17.00;10.27;;;9.70;1.00;;;;;;7373803;19;20032;-71
2024/01/30 12:04:08;;;;;;;16.48;10.40;;;9.80;1.00;;;;;;7374979;19;20071;-71
2024/01/30 12:06:38;;;;;;;;;;;9.90;1.00;;;;;;7375155;19;20030;-70
2024/01/30 12:09:10;;;;;;;14.07;10.40;;;9.90;1.00;;;;;;7375606;19;19929;-69
2024/01/30 12:11:50;;;;;;;16.95;10.60;;;9.80;1.00;;;;;;7373511;19;20030;-70
2024/01/30 12:14:22;;;;;;;15.80;10.55;;;9.90;1.00;;;;;;7372369;19;20015;-71
2024/01/30 12:16:52;;;;;;;17.92;10.68;;;10.00;1.00;;;;;;7372948;19;20006;-71
2024/01/30 12:19:25;;;;;;;17.85;11.20;;;10.00;1.00;;;;;;7373558;19;20010;-70
2024/01/30 12:21:59;;;;;;;17.17;11.82;;;10.00;1.00;;;;;;7374577;19;20118;-70
2024/01/30 12:24:30;;;;;;;15.43;11.32;;;9.90;1.00;;;;;;7368094;19;20007;-72
2024/01/30 12:27:03;;;;;;;23.30;11.07;;;10.00;1.00;;;;;;7373798;19;20386;-70
2024/01/30 12:29:35;;;;;;;18.30;12.10;;;10.00;1.00;;;;;;7374062;19;20029;-72
2024/01/30 12:32:09;;;;;;;15.40;11.02;;;10.10;1.00;;;;;;7379184;19;20014;-70
2024/01/30 12:34:43;;;;;;;15.68;10.95;;;10.20;1.00;;;;;;7377699;19;20081;-70
2024/01/30 12:37:29;;;;;;;20.40;11.88;;;10.00;1.00;;;;;;7375801;19;20014;-70
2024/01/30 12:39:59;;;;;;;15.65;11.32;;;10.00;1.00;;;;;;7376841;19;20011;-70
2024/01/30 12:42:32;;;;;;;19.80;12.05;;;10.00;1.00;;;;;;7373840;19;20095;-70
2024/01/30 12:45:04;;;;;;;14.00;10.73;;;10.00;1.00;;;;;;7375883;19;20018;-70
2024/01/30 12:47:34;;;;;;;16.02;11.65;;;10.00;1.00;;;;;;7376210;19;20237;-70
2024/01/30 12:50:05;;;;;;;18.67;11.93;;;10.00;1.00;;;;;;7375304;19;20010;-71
2024/01/30 12:52:35;;;;;;;15.32;11.43;;;10.10;1.00;;;;;;7373137;19;20015;-71
2024/01/30 12:55:06;;;;;;;19.85;12.65;;;10.20;1.00;;;;;;7377190;19;20045;-69
2024/01/30 12:57:39;;;;;;;17.77;13.30;;;10.20;1.00;;;;;;7379294;19;20010;-70
2024/01/30 13:00:10;;;;;;;16.08;12.13;;;10.30;1.00;;;;;;7379398;19;20015;-70
2024/01/30 13:02:42;;;;;;;17.77;12.40;;;10.30;1.00;;;;;;7377578;19;20033;-73
2024/01/30 13:05:12;;;;;;;16.85;11.95;;;10.20;1.00;;;;;;7378464;19;20053;-69
2024/01/30 13:07:44;;;;;;;17.95;11.18;;;10.30;1.00;;;;;;7378154;19;20486;-70